Pagrindinis puslapis
METAR-TAF:

METAR-TAF

Oro uostai :

Marsa Alam, Egiptas

platuma: 25-33-25N, ilguma: 34-35-01E, Aukštis: 77 m

Dabartinis oras

Ataskaita buvo paskelbta 1 valandą ir 10 minutes, ne 04:00 UTC
Vėjas 19 kt iš Šiaurės Vakarų
Temperatūra 31°C
Drėgmė 40%
Slėgis 1004 hPa
Matomumas 10 km arba daugiau
nėra debesų žemiau 1500 m ir nėra kamuolinių lietaus debesų

METAR: HEMA 160400Z 32019KT CAVOK 31/16 Q1004 NOSIG

Laikas: 07:10 (05:10 UTC)

Prognozė

Ataskaita buvo paskelbta 6 valandos ir 10 minutes, ne 23:00 UTC
Prognozė galioja nuo 16 metu 00 UTC su 17 metu 06 UTC
Vėjas 12 kt iš Vakarų
Matomumas 10 km arba daugiau
nėra debesų žemiau 1500 m ir nėra kamuolinių lietaus debesų

TAF: HEMA 152300Z 1600/1706 28012KT CAVOK

Orai ataskaitas ir orų prognozės (METAR, TAF).

turimą stotys yra geltonos ir raudonos taškus žemėlapyje.

Perkelti pele per norėdami pamatyti stoties vardą.

Tada spustelėkite, norėdami matyti oro stebėjimo ir prognozės.

Norėdami pakeisti žemėlapį: spustelėkite ant žalios mygtukų su juodo kryžiaus žemyn,; žalią mygtuką su brūkšneliu, jei norite nutolinti; arba žalių rodyklių gretimoms žemėlapius.


METAR-TAF: